createdAt,value
2022-10-10T00:01:27.164Z,4.77
2022-10-10T00:04:31.307Z,5.30
2022-10-10T00:07:34.091Z,4.87
2022-10-10T00:10:37.796Z,5.03
2022-10-10T00:13:41.591Z,4.90
2022-10-10T00:16:44.367Z,4.87
2022-10-10T00:19:48.469Z,4.70
2022-10-10T00:22:51.475Z,4.43
2022-10-10T00:25:55.288Z,4.90
2022-10-10T00:28:58.057Z,4.63
2022-10-10T00:32:00.904Z,4.97
2022-10-10T00:35:06.665Z,4.60
2022-10-10T00:38:10.984Z,4.37
2022-10-10T00:41:14.076Z,4.30
2022-10-10T00:44:17.360Z,4.70
2022-10-10T00:47:20.940Z,4.80
2022-10-10T00:50:26.268Z,5.07
2022-10-10T00:53:33.137Z,4.93
2022-10-10T00:56:40.499Z,4.63
2022-10-10T00:59:46.201Z,4.23
2022-10-10T01:02:49.243Z,4.50
2022-10-10T01:05:53.843Z,4.47
2022-10-10T01:08:58.160Z,5.00
2022-10-10T01:12:10.417Z,4.40
2022-10-10T01:15:20.216Z,4.50
2022-10-10T01:18:30.181Z,4.80
2022-10-10T01:21:45.585Z,5.13
2022-10-10T01:24:59.740Z,5.23
2022-10-10T01:28:05.736Z,4.80
2022-10-10T01:31:13.348Z,4.63
2022-10-10T01:34:26.158Z,4.60
2022-10-10T01:37:38.214Z,4.70
2022-10-10T01:40:48.935Z,4.80
2022-10-10T01:43:54.177Z,4.80
2022-10-10T01:46:59.474Z,4.87
2022-10-10T01:50:08.556Z,4.30
2022-10-10T01:53:15.517Z,4.63
2022-10-10T01:56:30.193Z,4.23
2022-10-10T01:59:42.286Z,5.10
2022-10-10T02:02:52.246Z,5.23
2022-10-10T02:05:58.772Z,4.83
2022-10-10T02:09:06.058Z,5.27
2022-10-10T02:12:11.869Z,4.60
2022-10-10T02:15:17.977Z,5.23
2022-10-10T02:18:28.605Z,4.57
2022-10-10T02:21:32.229Z,4.80
2022-10-10T02:24:35.093Z,4.87
2022-10-10T02:27:43.881Z,4.73
2022-10-10T02:30:49.225Z,4.63
2022-10-10T02:33:58.552Z,4.70
2022-10-10T02:37:03.994Z,4.60
2022-10-10T02:40:08.993Z,4.80
2022-10-10T02:43:13.230Z,4.70
2022-10-10T02:46:16.167Z,4.90
2022-10-10T02:49:26.990Z,4.90
2022-10-10T02:52:29.997Z,4.70
2022-10-10T02:55:32.792Z,4.57
2022-10-10T02:58:35.604Z,4.63
2022-10-10T03:01:38.554Z,5.40
2022-10-10T03:04:44.732Z,4.90
2022-10-10T03:07:47.487Z,4.90
2022-10-10T03:10:57.901Z,5.13
2022-10-10T03:14:00.713Z,5.30
2022-10-10T03:17:03.495Z,4.80
2022-10-10T03:20:09.292Z,5.10
2022-10-10T03:23:12.165Z,5.27
2022-10-10T03:26:14.972Z,5.23
2022-10-10T03:29:17.758Z,5.37
2022-10-10T03:32:20.536Z,5.00
2022-10-10T03:35:24.820Z,5.13
2022-10-10T03:38:27.689Z,4.83
2022-10-10T03:41:30.433Z,5.40
2022-10-10T03:44:33.197Z,4.80
2022-10-10T03:47:35.977Z,5.47
2022-10-10T03:50:40.322Z,5.33
2022-10-10T03:53:43.191Z,4.80
2022-10-10T03:56:46.012Z,6.07
2022-10-10T03:59:48.718Z,5.33
2022-10-10T04:02:53.643Z,5.30
2022-10-10T04:05:57.968Z,5.10
2022-10-10T04:09:00.741Z,5.30
2022-10-10T04:12:03.731Z,5.73
2022-10-10T04:15:07.488Z,5.50
2022-10-10T04:18:10.411Z,6.17
2022-10-10T04:21:14.549Z,4.93
2022-10-10T04:24:17.352Z,5.23
2022-10-10T04:27:20.164Z,5.43
2022-10-10T04:30:22.899Z,5.60
2022-10-10T04:33:25.667Z,5.67
2022-10-10T04:36:29.864Z,5.37
2022-10-10T04:39:32.678Z,5.50
2022-10-10T04:42:35.413Z,5.00
2022-10-10T04:45:38.248Z,5.50
2022-10-10T04:48:41.026Z,5.40
2022-10-10T04:51:45.154Z,5.53
2022-10-10T04:54:47.848Z,6.10
2022-10-10T04:57:50.653Z,6.07
2022-10-10T05:00:53.773Z,6.03
2022-10-10T05:03:56.887Z,5.80
2022-10-10T05:07:01.011Z,5.50
2022-10-10T05:10:03.928Z,5.67
2022-10-10T05:13:06.940Z,6.10
2022-10-10T05:16:09.720Z,6.90
2022-10-10T05:19:12.718Z,6.20
2022-10-10T05:22:16.848Z,5.33
2022-10-10T05:25:19.683Z,5.30
2022-10-10T05:28:22.478Z,5.80
2022-10-10T05:31:25.564Z,5.77
2022-10-10T05:34:28.499Z,5.60
2022-10-10T05:37:32.822Z,6.13
2022-10-10T05:40:35.877Z,6.03
2022-10-10T05:43:38.668Z,5.93
2022-10-10T05:46:41.656Z,5.33
2022-10-10T05:49:44.494Z,6.00
2022-10-10T05:52:48.945Z,5.80
2022-10-10T05:55:52.033Z,5.63
2022-10-10T05:58:54.847Z,6.17
2022-10-10T06:01:57.708Z,6.10
2022-10-10T06:05:00.658Z,5.83
2022-10-10T06:08:10.722Z,5.87
2022-10-10T06:11:15.942Z,5.90
2022-10-10T06:14:18.809Z,5.40
2022-10-10T06:17:21.583Z,5.67
2022-10-10T06:20:24.527Z,6.03
2022-10-10T06:23:28.970Z,7.40
2022-10-10T06:26:31.759Z,5.90
2022-10-10T06:29:34.550Z,6.40
2022-10-10T06:32:38.188Z,5.80
2022-10-10T06:35:42.325Z,5.70
2022-10-10T06:38:47.152Z,5.93
2022-10-10T06:41:50.113Z,6.30
2022-10-10T06:44:53.062Z,5.90
2022-10-10T06:47:56.314Z,6.17
2022-10-10T06:51:01.064Z,6.00
2022-10-10T06:54:05.696Z,6.87
2022-10-10T06:57:08.456Z,6.80
2022-10-10T07:00:13.728Z,9.67
2022-10-10T07:03:16.484Z,7.27
2022-10-10T07:06:19.557Z,7.07
2022-10-10T07:09:23.627Z,7.30
2022-10-10T07:12:29.645Z,6.40
2022-10-10T07:15:33.287Z,6.47
2022-10-10T07:18:37.609Z,6.03
2022-10-10T07:21:40.385Z,7.00
2022-10-10T07:24:44.551Z,6.23
2022-10-10T07:27:47.326Z,6.70
2022-10-10T07:30:50.171Z,6.03
2022-10-10T07:33:53.048Z,6.13
2022-10-10T07:36:55.782Z,5.97
2022-10-10T07:39:59.989Z,6.33
2022-10-10T07:43:02.789Z,6.80
2022-10-10T07:46:08.309Z,6.63
2022-10-10T07:49:14.255Z,6.03
2022-10-10T07:52:17.874Z,6.33
2022-10-10T07:55:22.103Z,6.33
2022-10-10T07:58:24.870Z,6.07
2022-10-10T08:01:27.835Z,6.40
2022-10-10T08:04:30.618Z,6.07
2022-10-10T08:07:33.424Z,6.60
2022-10-10T08:10:37.922Z,6.47
2022-10-10T08:13:42.369Z,5.23
2022-10-10T08:16:45.179Z,5.00
2022-10-10T08:19:48.789Z,4.97
2022-10-10T08:22:51.884Z,5.33
2022-10-10T08:25:59.340Z,5.13
2022-10-10T08:29:03.354Z,5.43
2022-10-10T08:32:06.204Z,5.00
2022-10-10T08:35:09.232Z,5.23
2022-10-10T08:38:12.436Z,5.23
2022-10-10T08:41:33.949Z,5.03
2022-10-10T08:44:42.019Z,4.90
2022-10-10T08:47:49.933Z,6.53
2022-10-10T08:50:58.054Z,5.70
2022-10-10T08:54:05.156Z,5.10
2022-10-10T08:57:21.078Z,5.10
2022-10-10T09:00:26.878Z,4.93
2022-10-10T09:03:36.173Z,5.10
2022-10-10T09:07:03.302Z,4.63
2022-10-10T09:10:18.459Z,4.40
2022-10-10T09:13:32.900Z,4.73
2022-10-10T09:16:41.220Z,4.70
2022-10-10T09:19:55.003Z,4.50
2022-10-10T09:23:04.082Z,4.80
2022-10-10T09:26:11.709Z,5.23
2022-10-10T09:29:28.087Z,4.40
2022-10-10T09:32:35.414Z,4.53
2022-10-10T09:35:42.507Z,4.70
2022-10-10T09:38:49.280Z,4.53
2022-10-10T09:41:56.759Z,4.30
2022-10-10T09:45:01.000Z,4.40
2022-10-10T09:48:04.402Z,4.27
2022-10-10T09:51:09.475Z,4.53
2022-10-10T09:54:12.656Z,4.37
2022-10-10T09:57:20.428Z,4.20
2022-10-10T10:00:33.719Z,4.47
2022-10-10T10:03:36.527Z,4.10
2022-10-10T10:06:40.343Z,4.43
2022-10-10T10:09:48.692Z,3.93
2022-10-10T10:12:52.348Z,3.87
2022-10-10T10:16:05.252Z,3.93
2022-10-10T10:19:32.292Z,4.60
2022-10-10T10:22:38.404Z,3.73
2022-10-10T10:25:41.157Z,4.00
2022-10-10T10:28:44.611Z,3.70
2022-10-10T10:32:00.966Z,4.20
2022-10-10T10:35:17.222Z,4.83
2022-10-10T10:38:35.303Z,4.80
2022-10-10T10:41:46.789Z,3.97
2022-10-10T10:44:57.107Z,4.20
2022-10-10T10:48:12.947Z,3.90
2022-10-10T10:51:32.497Z,4.53
2022-10-10T10:54:49.643Z,4.03
2022-10-10T10:58:58.044Z,4.67
2022-10-10T11:01:55.166Z,4.50
2022-10-10T11:05:29.020Z,4.07
2022-10-10T11:08:58.748Z,4.60
2022-10-10T11:12:13.142Z,4.60
2022-10-10T11:15:20.274Z,4.57
2022-10-10T11:18:28.180Z,3.80
2022-10-10T11:21:35.202Z,4.20
2022-10-10T11:24:46.037Z,4.10
2022-10-10T11:27:53.904Z,3.90
2022-10-10T11:31:00.795Z,3.77
2022-10-10T11:34:08.340Z,4.00
2022-10-10T11:37:18.668Z,4.57
2022-10-10T11:40:36.238Z,5.27
2022-10-10T11:43:46.426Z,4.40
2022-10-10T11:46:57.604Z,4.50
2022-10-10T11:50:06.827Z,4.03
2022-10-10T11:53:18.553Z,4.10
2022-10-10T11:56:27.721Z,4.37
2022-10-10T11:59:35.735Z,6.93
2022-10-10T12:02:41.167Z,3.97
2022-10-10T12:05:52.642Z,3.97
2022-10-10T12:09:02.866Z,3.90
2022-10-10T12:12:11.231Z,3.77
2022-10-10T12:15:28.031Z,3.90
2022-10-10T12:18:33.253Z,3.60
2022-10-10T12:21:53.254Z,4.33
2022-10-10T12:25:23.062Z,4.00
2022-10-10T12:28:35.139Z,4.83
2022-10-10T12:31:38.646Z,3.87
2022-10-10T12:34:43.860Z,4.20
2022-10-10T12:38:25.724Z,4.03
2022-10-10T12:41:55.547Z,4.13
2022-10-10T12:44:58.645Z,4.33
2022-10-10T12:48:06.944Z,4.33
2022-10-10T12:51:20.823Z,4.20
2022-10-10T12:54:28.649Z,4.30
2022-10-10T12:57:36.968Z,3.97
2022-10-10T13:00:41.776Z,4.10
2022-10-10T13:03:47.417Z,4.20
2022-10-10T13:06:54.077Z,4.40
2022-10-10T13:10:06.704Z,4.10
2022-10-10T13:13:19.088Z,4.10
2022-10-10T13:16:26.043Z,4.07
2022-10-10T13:19:30.461Z,3.77
2022-10-10T13:22:36.953Z,5.20
2022-10-10T13:25:40.889Z,4.13
2022-10-10T13:28:46.068Z,4.70
2022-10-10T13:31:58.272Z,3.93
2022-10-10T13:35:05.555Z,4.00
2022-10-10T13:38:08.449Z,4.47
2022-10-10T13:41:11.452Z,4.13
2022-10-10T13:44:17.996Z,4.23
2022-10-10T13:47:51.399Z,4.37
2022-10-10T13:51:13.019Z,4.60
2022-10-10T13:54:44.105Z,4.20
2022-10-10T13:57:47.883Z,4.53
2022-10-10T14:00:57.880Z,5.17
2022-10-10T14:04:06.768Z,5.07
2022-10-10T14:07:14.711Z,4.37
2022-10-10T14:10:22.373Z,5.17
2022-10-10T14:13:25.641Z,4.30
2022-10-10T14:16:29.798Z,4.43
2022-10-10T14:19:33.789Z,4.50
2022-10-10T14:22:36.633Z,4.63
2022-10-10T14:25:40.483Z,4.30
2022-10-10T14:28:43.850Z,4.53
2022-10-10T14:31:48.458Z,4.67
2022-10-10T14:34:51.249Z,5.30
2022-10-10T14:37:53.995Z,5.27
2022-10-10T14:40:57.073Z,5.33
2022-10-10T14:43:59.830Z,4.83
2022-10-10T14:47:03.931Z,4.40
2022-10-10T14:50:15.505Z,5.20
2022-10-10T14:53:18.756Z,4.63
2022-10-10T14:56:21.517Z,5.33
2022-10-10T14:59:47.766Z,5.50
2022-10-10T15:02:48.776Z,4.20
2022-10-10T15:05:52.202Z,5.00
2022-10-10T15:08:55.071Z,5.53
2022-10-10T15:11:58.114Z,7.20
2022-10-10T15:15:00.865Z,4.90
2022-10-10T15:18:05.469Z,5.23
2022-10-10T15:21:12.090Z,5.53
2022-10-10T15:24:14.866Z,4.70
2022-10-10T15:27:17.638Z,5.40
2022-10-10T15:30:20.579Z,5.00
2022-10-10T15:33:24.879Z,5.00
2022-10-10T15:36:27.744Z,6.50
2022-10-10T15:39:31.139Z,5.80
2022-10-10T15:42:34.001Z,6.20
2022-10-10T15:45:54.930Z,5.60
2022-10-10T15:49:02.158Z,5.63
2022-10-10T15:52:05.218Z,5.10
2022-10-10T15:55:08.696Z,5.60
2022-10-10T15:58:11.733Z,5.47
2022-10-10T16:01:17.002Z,6.10
2022-10-10T16:04:22.428Z,5.90
2022-10-10T16:07:28.628Z,5.90
2022-10-10T16:10:38.442Z,5.50
2022-10-10T16:13:42.063Z,6.13
2022-10-10T16:16:45.025Z,5.90
2022-10-10T16:19:49.353Z,5.87
2022-10-10T16:22:52.237Z,5.93
2022-10-10T16:26:02.505Z,5.50
2022-10-10T16:29:09.924Z,5.93
2022-10-10T16:32:12.660Z,5.97
2022-10-10T16:35:17.020Z,5.73
2022-10-10T16:38:19.756Z,5.70
2022-10-10T16:41:46.035Z,6.10
2022-10-10T16:44:45.481Z,6.37
2022-10-10T16:47:48.227Z,7.57
2022-10-10T16:50:52.351Z,7.67
2022-10-10T16:53:55.903Z,6.70
2022-10-10T16:56:58.681Z,8.90
2022-10-10T17:00:01.433Z,9.10
2022-10-10T17:03:05.038Z,9.47
2022-10-10T17:06:13.003Z,10.60
2022-10-10T17:09:17.125Z,11.70
2022-10-10T17:12:20.381Z,12.33
2022-10-10T17:15:23.132Z,12.00
2022-10-10T17:18:25.980Z,12.23
2022-10-10T17:21:31.501Z,12.80
2022-10-10T17:24:34.527Z,10.93
2022-10-10T17:27:38.834Z,9.47
2022-10-10T17:30:43.715Z,9.70
2022-10-10T17:33:53.286Z,9.47
2022-10-10T17:36:58.269Z,9.50
2022-10-10T17:40:01.008Z,10.17
2022-10-10T17:43:04.859Z,9.60
2022-10-10T17:46:29.363Z,10.07
2022-10-10T17:49:32.522Z,13.73
2022-10-10T17:52:36.700Z,12.73
2022-10-10T17:55:42.248Z,12.17
2022-10-10T17:58:45.720Z,15.13
2022-10-10T18:01:48.509Z,10.50
2022-10-10T18:04:51.362Z,10.60
2022-10-10T18:07:56.593Z,8.90
2022-10-10T18:11:00.006Z,9.10
2022-10-10T18:14:03.052Z,9.90
2022-10-10T18:17:05.912Z,9.00
2022-10-10T18:20:10.199Z,9.37
2022-10-10T18:23:14.352Z,8.77
2022-10-10T18:26:19.261Z,9.40
2022-10-10T18:29:22.061Z,9.60
2022-10-10T18:32:24.794Z,9.90
2022-10-10T18:35:27.588Z,10.83
2022-10-10T18:38:31.970Z,11.50
2022-10-10T18:41:35.254Z,10.33
2022-10-10T18:44:38.054Z,9.90
2022-10-10T18:47:40.829Z,9.33
2022-10-10T18:50:43.684Z,9.03
2022-10-10T18:53:47.764Z,8.83
2022-10-10T18:56:50.544Z,9.43
2022-10-10T18:59:55.327Z,7.67
2022-10-10T19:02:58.070Z,6.90
2022-10-10T19:06:02.731Z,7.77
2022-10-10T19:09:10.094Z,7.37
2022-10-10T19:12:12.940Z,10.33
2022-10-10T19:15:15.961Z,8.60
2022-10-10T19:18:21.004Z,7.47
2022-10-10T19:21:23.948Z,7.23
2022-10-10T19:24:28.037Z,7.50
2022-10-10T19:27:30.827Z,6.93
2022-10-10T19:30:34.309Z,7.90
2022-10-10T19:33:37.446Z,9.40
2022-10-10T19:36:42.268Z,8.07
2022-10-10T19:39:46.597Z,7.40
2022-10-10T19:42:49.384Z,7.00
2022-10-10T19:45:52.334Z,7.77
2022-10-10T19:48:57.984Z,7.50
2022-10-10T19:52:00.755Z,7.80
2022-10-10T19:55:05.484Z,8.50
2022-10-10T19:58:08.845Z,9.20
2022-10-10T20:01:13.728Z,7.67
2022-10-10T20:04:16.553Z,7.50
2022-10-10T20:07:19.400Z,7.80
2022-10-10T20:10:23.740Z,8.27
2022-10-10T20:13:26.675Z,7.40
2022-10-10T20:16:29.544Z,6.83
2022-10-10T20:19:32.420Z,7.17
2022-10-10T20:22:35.409Z,7.73
2022-10-10T20:25:40.794Z,7.50
2022-10-10T20:28:43.947Z,7.00
2022-10-10T20:31:46.756Z,10.63
2022-10-10T20:34:49.555Z,8.40
2022-10-10T20:37:52.402Z,7.83
2022-10-10T20:40:56.809Z,6.63
2022-10-10T20:44:01.254Z,6.87
2022-10-10T20:47:04.128Z,7.20
2022-10-10T20:50:07.762Z,7.07
2022-10-10T20:53:12.601Z,6.87
2022-10-10T20:56:16.829Z,5.97
2022-10-10T20:59:20.883Z,5.93
2022-10-10T21:02:23.798Z,5.10
2022-10-10T21:05:26.676Z,5.40
2022-10-10T21:08:29.505Z,5.90
2022-10-10T21:11:34.107Z,5.97
2022-10-10T21:14:37.205Z,5.43
2022-10-10T21:17:40.037Z,5.70
2022-10-10T21:20:42.816Z,5.60
2022-10-10T21:23:47.244Z,6.00
2022-10-10T21:26:51.325Z,5.50
2022-10-10T21:29:54.117Z,5.70
2022-10-10T21:32:56.896Z,5.90
2022-10-10T21:35:59.731Z,5.50
2022-10-10T21:39:03.329Z,5.13
2022-10-10T21:42:07.494Z,5.50
2022-10-10T21:45:11.041Z,5.90
2022-10-10T21:48:14.203Z,5.60
2022-10-10T21:51:17.076Z,5.43
2022-10-10T21:54:19.866Z,5.80
2022-10-10T21:57:23.923Z,5.73
2022-10-10T22:00:26.935Z,6.87
2022-10-10T22:03:29.716Z,6.10
2022-10-10T22:06:33.051Z,6.27
2022-10-10T22:09:35.858Z,6.57
2022-10-10T22:12:39.958Z,6.60
2022-10-10T22:15:42.762Z,7.23
2022-10-10T22:18:45.558Z,6.80
2022-10-10T22:21:48.340Z,6.97
2022-10-10T22:24:51.130Z,6.53
2022-10-10T22:27:57.384Z,7.23
2022-10-10T22:31:04.406Z,6.83
2022-10-10T22:34:07.875Z,7.63
2022-10-10T22:37:10.806Z,7.13
2022-10-10T22:40:13.941Z,8.20
2022-10-10T22:43:18.053Z,7.60
2022-10-10T22:46:20.803Z,8.30
2022-10-10T22:49:23.589Z,7.37
2022-10-10T22:52:26.421Z,7.17
2022-10-10T22:55:29.267Z,6.87
2022-10-10T22:58:33.712Z,6.93
2022-10-10T23:01:37.192Z,7.13
2022-10-10T23:04:40.086Z,6.53
2022-10-10T23:07:42.906Z,6.53
2022-10-10T23:10:45.616Z,5.57
2022-10-10T23:13:49.731Z,5.50
2022-10-10T23:16:52.496Z,5.07
2022-10-10T23:19:55.289Z,4.67
2022-10-10T23:22:58.417Z,5.20
2022-10-10T23:26:04.816Z,4.80
2022-10-10T23:29:09.247Z,4.27
2022-10-10T23:32:12.040Z,4.10
2022-10-10T23:35:14.792Z,4.40
2022-10-10T23:38:17.606Z,4.27
2022-10-10T23:41:20.383Z,4.77
2022-10-10T23:44:24.798Z,4.20
2022-10-10T23:47:27.565Z,3.53
2022-10-10T23:50:30.524Z,3.70
2022-10-10T23:53:33.835Z,3.40
2022-10-10T23:56:36.943Z,3.60
2022-10-10T23:59:41.093Z,3.80
